Current Conditions
Partly Cloudy
Conditions



Pressure
1010.84 (hPa) - 29.85 (inHG)
Visibility

9.7 (km) - 6.0 (miles)
   Temperature
14  °C
57°F
12  °C
Dewpoint
88  %
 Humidity
   Wind Speed
14  km/h
8  kts
9  mph
4.0  m/s
   Wind Direction
 200°
South South
West
   Airport Data
EHLW
Location Leeuwarden Air Base 10 km (6.22 mi)
Metar :EHLW 230555Z AUTO 20008KT 150V230 9999 FEW022 OVC034 14/12 Q1011 BLU
Thu 23rd May 07:55 am
   Raw Metar Info
Raw METAR is the most common format in the world for the transmission of observational weather data. It is highly standardized through the International Civil Aviation Organization (ICAO), which allows it to be understood throughout most of the world.
   API Info
Data Provided by
https://www.checkwx.com/weather/EHLW
   © Info
CSS/SVG/PHP scripts were developed by weather34.com for use in the weather34 template © 2015-2024

Guide Info provided by Metar-Wikipedia